createdAt,value
2019-01-15T00:01:14.326Z,2.63
2019-01-15T00:03:44.839Z,3.23
2019-01-15T00:06:15.148Z,3.00
2019-01-15T00:08:47.286Z,2.60
2019-01-15T00:11:16.845Z,2.90
2019-01-15T00:13:47.163Z,2.50
2019-01-15T00:16:17.378Z,2.73
2019-01-15T00:18:47.383Z,2.10
2019-01-15T00:21:18.019Z,2.67
2019-01-15T00:23:47.486Z,2.20
2019-01-15T00:26:16.974Z,2.57
2019-01-15T00:28:47.108Z,2.60
2019-01-15T00:31:17.296Z,2.17
2019-01-15T00:33:47.343Z,2.50
2019-01-15T00:36:17.570Z,2.10
2019-01-15T00:38:47.600Z,2.30
2019-01-15T00:41:17.220Z,2.10
2019-01-15T00:43:47.264Z,2.17
2019-01-15T00:46:17.239Z,2.30
2019-01-15T00:48:46.674Z,2.50
2019-01-15T00:51:16.178Z,2.40
2019-01-15T00:53:46.284Z,2.90
2019-01-15T00:56:17.844Z,2.53
2019-01-15T00:58:47.805Z,2.83
2019-01-15T01:01:17.987Z,2.80
2019-01-15T01:03:48.442Z,2.70
2019-01-15T01:06:18.094Z,2.73
2019-01-15T01:08:48.396Z,2.77
2019-01-15T01:11:17.879Z,2.60
2019-01-15T01:13:48.064Z,2.77
2019-01-15T01:16:17.569Z,3.13
2019-01-15T01:18:47.386Z,2.90
2019-01-15T01:21:17.650Z,3.00
2019-01-15T01:23:48.982Z,2.93
2019-01-15T01:26:19.272Z,3.17
2019-01-15T01:28:49.006Z,2.77
2019-01-15T01:31:18.909Z,2.80
2019-01-15T01:33:50.424Z,3.00
2019-01-15T01:36:21.902Z,2.97
2019-01-15T01:38:51.326Z,2.90
2019-01-15T01:41:21.628Z,2.97
2019-01-15T01:43:52.003Z,3.13
2019-01-15T01:46:22.122Z,2.90
2019-01-15T01:48:53.215Z,3.10
2019-01-15T01:51:24.461Z,3.00
2019-01-15T01:53:54.423Z,2.77
2019-01-15T01:56:24.495Z,2.57
2019-01-15T01:58:54.799Z,3.10
2019-01-15T02:01:25.672Z,3.00
2019-01-15T02:03:55.824Z,2.77
2019-01-15T02:06:26.233Z,2.80
2019-01-15T02:08:56.862Z,2.87
2019-01-15T02:11:26.646Z,2.90
2019-01-15T02:13:57.188Z,2.93
2019-01-15T02:16:27.254Z,2.80
2019-01-15T02:18:57.812Z,2.83
2019-01-15T02:21:27.992Z,2.83
2019-01-15T02:23:58.334Z,3.00
2019-01-15T02:26:27.854Z,3.03
2019-01-15T02:28:57.556Z,3.00
2019-01-15T02:31:27.479Z,3.07
2019-01-15T02:33:57.961Z,3.23
2019-01-15T02:36:28.029Z,2.87
2019-01-15T02:38:58.160Z,3.07
2019-01-15T02:41:27.653Z,3.10
2019-01-15T02:43:57.674Z,2.90
2019-01-15T02:46:27.875Z,2.73
2019-01-15T02:48:57.381Z,2.80
2019-01-15T02:51:27.313Z,2.47
2019-01-15T02:53:58.841Z,4.13
2019-01-15T02:56:31.650Z,2.07
2019-01-15T02:59:03.026Z,2.03
2019-01-15T03:01:32.511Z,2.30
2019-01-15T03:04:02.857Z,2.40
2019-01-15T03:06:34.207Z,2.63
2019-01-15T03:09:07.682Z,2.43
2019-01-15T03:11:37.846Z,2.43
2019-01-15T03:14:08.046Z,2.30
2019-01-15T03:16:38.272Z,2.30
2019-01-15T03:19:10.124Z,2.23
2019-01-15T03:21:40.179Z,2.13
2019-01-15T03:24:11.827Z,2.50
2019-01-15T03:26:41.390Z,2.60
2019-01-15T03:29:11.638Z,2.40
2019-01-15T03:31:41.658Z,2.67
2019-01-15T03:34:11.187Z,2.80
2019-01-15T03:36:40.844Z,2.70
2019-01-15T03:39:11.034Z,2.40
2019-01-15T03:41:41.031Z,2.67
2019-01-15T03:44:11.007Z,2.77
2019-01-15T03:46:42.214Z,2.40
2019-01-15T03:49:12.029Z,2.57
2019-01-15T03:51:42.190Z,2.37
2019-01-15T03:54:12.621Z,2.60
2019-01-15T03:56:42.218Z,2.50
2019-01-15T03:59:12.151Z,2.67
2019-01-15T04:01:42.702Z,2.70
2019-01-15T04:04:14.094Z,3.03
2019-01-15T04:06:44.217Z,2.50
2019-01-15T04:09:14.713Z,2.90
2019-01-15T04:11:45.091Z,3.87
2019-01-15T04:14:14.873Z,2.70
2019-01-15T04:16:45.155Z,2.67
2019-01-15T04:19:15.549Z,2.40
2019-01-15T04:21:45.169Z,2.67
2019-01-15T04:24:14.650Z,3.10
2019-01-15T04:26:44.762Z,3.10
2019-01-15T04:29:14.407Z,3.30
2019-01-15T04:31:44.295Z,3.30
2019-01-15T04:34:13.728Z,3.50
2019-01-15T04:36:43.630Z,3.50
2019-01-15T04:39:13.687Z,2.93
2019-01-15T04:41:44.229Z,3.10
2019-01-15T04:44:14.449Z,3.40
2019-01-15T04:46:45.574Z,3.20
2019-01-15T04:49:16.045Z,2.83
2019-01-15T04:51:45.583Z,3.10
2019-01-15T04:54:16.070Z,3.13
2019-01-15T04:56:45.686Z,3.23
2019-01-15T04:59:15.183Z,3.70
2019-01-15T05:01:45.860Z,3.53
2019-01-15T05:04:15.720Z,3.10
2019-01-15T05:06:45.885Z,2.80
2019-01-15T05:09:16.416Z,3.60
2019-01-15T05:11:46.463Z,3.23
2019-01-15T05:14:16.062Z,3.20
2019-01-15T05:16:45.747Z,3.70
2019-01-15T05:19:16.302Z,3.00
2019-01-15T05:21:45.986Z,3.17
2019-01-15T05:24:18.309Z,3.00
2019-01-15T05:26:49.259Z,3.17
2019-01-15T05:29:19.668Z,3.40
2019-01-15T05:31:49.774Z,3.67
2019-01-15T05:34:19.892Z,3.50
2019-01-15T05:36:51.761Z,3.33
2019-01-15T05:39:22.067Z,3.60
2019-01-15T05:41:52.080Z,3.47
2019-01-15T05:44:21.931Z,3.47
2019-01-15T05:46:52.141Z,4.00
2019-01-15T05:49:21.714Z,3.53
2019-01-15T05:51:52.006Z,3.70
2019-01-15T05:54:22.025Z,5.80
2019-01-15T05:56:51.671Z,3.87
2019-01-15T05:59:21.682Z,3.70
2019-01-15T06:01:52.187Z,4.03
2019-01-15T06:04:21.717Z,3.70
2019-01-15T06:06:51.721Z,3.70
2019-01-15T06:09:22.461Z,3.97
2019-01-15T06:11:52.035Z,3.80
2019-01-15T06:14:22.301Z,4.10
2019-01-15T06:16:52.463Z,3.70
2019-01-15T06:19:22.703Z,3.43
2019-01-15T06:21:52.841Z,4.30
2019-01-15T06:24:23.386Z,3.67
2019-01-15T06:26:54.038Z,4.10
2019-01-15T06:29:23.937Z,4.50
2019-01-15T06:31:54.428Z,4.60
2019-01-15T06:34:24.104Z,4.00
2019-01-15T06:36:56.251Z,4.27
2019-01-15T06:39:27.847Z,3.70
2019-01-15T06:41:57.414Z,5.00
2019-01-15T06:44:28.367Z,3.60
2019-01-15T06:46:57.887Z,4.10
2019-01-15T06:49:29.249Z,4.00
2019-01-15T06:51:59.216Z,3.60
2019-01-15T06:54:28.707Z,3.87
2019-01-15T06:56:58.373Z,3.87
2019-01-15T06:59:28.072Z,3.53
2019-01-15T07:01:57.801Z,4.13
2019-01-15T07:04:28.403Z,3.57
2019-01-15T07:06:57.999Z,5.03
2019-01-15T07:09:27.899Z,3.57
2019-01-15T07:11:57.452Z,3.93
2019-01-15T07:14:26.806Z,4.37
2019-01-15T07:16:56.576Z,4.30
2019-01-15T07:19:25.995Z,4.30
2019-01-15T07:21:58.815Z,4.20
2019-01-15T07:24:28.709Z,3.97
2019-01-15T07:26:58.895Z,4.23
2019-01-15T07:29:29.326Z,4.10
2019-01-15T07:31:59.026Z,4.80
2019-01-15T07:34:29.311Z,4.97
2019-01-15T07:36:58.762Z,5.30
2019-01-15T07:39:28.580Z,5.33
2019-01-15T07:41:59.544Z,5.03
2019-01-15T07:44:29.156Z,5.37
2019-01-15T07:46:59.195Z,5.57
2019-01-15T07:49:29.082Z,5.27
2019-01-15T07:51:58.462Z,5.13
2019-01-15T07:54:27.909Z,4.90
2019-01-15T07:56:57.547Z,5.43
2019-01-15T07:59:27.659Z,10.37
2019-01-15T08:01:57.504Z,5.43
2019-01-15T08:04:26.963Z,7.40
2019-01-15T08:06:56.509Z,6.17
2019-01-15T08:09:25.996Z,6.10
2019-01-15T08:11:55.919Z,5.30
2019-01-15T08:14:25.660Z,5.77
2019-01-15T08:16:55.142Z,5.90
2019-01-15T08:19:26.750Z,5.23
2019-01-15T08:21:56.172Z,6.23
2019-01-15T08:24:25.660Z,5.30
2019-01-15T08:26:55.119Z,5.90
2019-01-15T08:29:25.205Z,5.80
2019-01-15T08:31:54.835Z,5.50
2019-01-15T08:34:25.153Z,6.07
2019-01-15T08:36:55.247Z,6.37
2019-01-15T08:39:25.111Z,6.50
2019-01-15T08:41:56.135Z,5.97
2019-01-15T08:44:26.750Z,5.73
2019-01-15T08:46:57.207Z,5.40
2019-01-15T08:49:26.905Z,5.60
2019-01-15T08:51:56.804Z,6.07
2019-01-15T08:54:26.860Z,5.23
2019-01-15T08:56:56.552Z,5.20
2019-01-15T08:59:26.671Z,5.40
2019-01-15T09:01:56.140Z,5.77
2019-01-15T09:04:29.383Z,5.10
2019-01-15T09:07:00.438Z,5.30
2019-01-15T09:09:30.706Z,5.30
2019-01-15T09:12:01.364Z,4.93
2019-01-15T09:14:31.903Z,5.10
2019-01-15T09:17:02.084Z,5.53
2019-01-15T09:19:32.544Z,5.80
2019-01-15T09:22:02.155Z,5.50
2019-01-15T09:24:31.685Z,5.03
2019-01-15T09:27:02.101Z,5.60
2019-01-15T09:29:32.529Z,5.43
2019-01-15T09:32:02.584Z,6.90
2019-01-15T09:34:32.606Z,5.67
2019-01-15T09:37:02.346Z,5.77
2019-01-15T09:39:32.259Z,5.87
2019-01-15T09:42:02.388Z,6.30
2019-01-15T09:44:34.184Z,5.33
2019-01-15T09:47:03.910Z,5.80
2019-01-15T09:49:34.463Z,5.60
2019-01-15T09:52:12.928Z,5.13
2019-01-15T09:54:36.996Z,5.40
2019-01-15T09:57:06.852Z,5.57
2019-01-15T09:59:37.019Z,5.40
2019-01-15T10:02:07.119Z,5.40
2019-01-15T10:04:37.579Z,5.33
2019-01-15T10:07:08.201Z,5.37
2019-01-15T10:09:37.751Z,4.67
2019-01-15T10:12:07.202Z,4.90
2019-01-15T10:14:41.177Z,6.37
2019-01-15T10:17:10.508Z,4.40
2019-01-15T10:19:40.693Z,4.67
2019-01-15T10:22:10.280Z,4.40
2019-01-15T10:24:41.026Z,4.33
2019-01-15T10:27:11.120Z,3.87
2019-01-15T10:29:40.586Z,4.50
2019-01-15T10:32:33.390Z,4.00
2019-01-15T10:35:10.719Z,4.20
2019-01-15T10:37:40.814Z,4.60
2019-01-15T10:40:10.418Z,4.47
2019-01-15T10:42:40.103Z,4.07
2019-01-15T10:45:11.935Z,4.40
2019-01-15T10:47:42.138Z,3.93
2019-01-15T10:50:12.578Z,3.97
2019-01-15T10:52:42.119Z,3.47
2019-01-15T10:55:12.334Z,4.30
2019-01-15T10:57:42.258Z,3.80
2019-01-15T11:00:12.674Z,3.37
2019-01-15T11:02:43.168Z,3.73
2019-01-15T11:05:12.888Z,4.10
2019-01-15T11:07:42.258Z,3.40
2019-01-15T11:10:12.951Z,3.83
2019-01-15T11:12:42.947Z,4.10
2019-01-15T11:15:13.366Z,3.67
2019-01-15T11:17:42.927Z,3.17
2019-01-15T11:20:13.234Z,4.07
2019-01-15T11:22:42.727Z,3.90
2019-01-15T11:25:12.183Z,3.47
2019-01-15T11:27:42.057Z,3.50
2019-01-15T11:30:13.450Z,3.73
2019-01-15T11:32:43.138Z,3.97
2019-01-15T11:39:00.429Z,4.10
2019-01-15T11:41:29.875Z,5.20
2019-01-15T11:44:00.384Z,4.60
2019-01-15T11:46:30.907Z,5.03
2019-01-15T11:49:00.560Z,4.87
2019-01-15T11:51:30.301Z,4.33
2019-01-15T11:53:59.865Z,4.90
2019-01-15T11:56:29.821Z,4.47
2019-01-15T11:58:59.785Z,4.47
2019-01-15T12:01:45.414Z,4.60
2019-01-15T12:04:34.425Z,3.60
2019-01-15T12:07:23.155Z,4.50
2019-01-15T12:09:59.733Z,2.93
2019-01-15T12:12:55.010Z,2.73
2019-01-15T12:15:43.873Z,2.70
2019-01-15T12:18:31.199Z,2.70
2019-01-15T12:21:29.970Z,2.03
2019-01-15T12:24:17.268Z,2.60
2019-01-15T12:27:15.182Z,2.47
2019-01-15T12:30:07.405Z,2.53
2019-01-15T12:32:59.340Z,3.00
2019-01-15T12:35:46.482Z,3.17
2019-01-15T12:38:34.488Z,3.30
2019-01-15T12:41:15.984Z,3.17
2019-01-15T12:44:15.048Z,2.77
2019-01-15T12:47:04.141Z,2.47
2019-01-15T12:49:56.454Z,2.83
2019-01-15T12:52:56.578Z,2.30
2019-01-15T12:55:45.653Z,2.40
2019-01-15T12:58:34.026Z,2.33
2019-01-15T13:01:35.898Z,2.77
2019-01-15T13:04:25.090Z,2.40
2019-01-15T13:07:14.104Z,2.60
2019-01-15T13:10:11.668Z,2.30
2019-01-15T13:13:15.562Z,2.07
2019-01-15T13:15:58.801Z,1.83
2019-01-15T13:18:53.697Z,2.20
2019-01-15T13:21:45.203Z,2.20
2019-01-15T13:24:32.502Z,2.33
2019-01-15T13:27:30.515Z,2.27
2019-01-15T13:30:26.745Z,2.17
2019-01-15T13:33:36.947Z,2.40
2019-01-15T13:36:28.167Z,3.40
2019-01-15T13:39:26.696Z,3.03
2019-01-15T13:42:25.686Z,2.93
2019-01-15T13:45:15.726Z,2.57
2019-01-15T13:47:58.852Z,3.03
2019-01-15T13:50:56.783Z,3.33
2019-01-15T13:53:44.757Z,3.67
2019-01-15T13:56:32.960Z,2.80
2019-01-15T13:59:14.419Z,2.93
2019-01-15T14:02:03.012Z,3.30
2019-01-15T14:04:52.929Z,2.80
2019-01-15T14:07:40.511Z,3.07
2019-01-15T14:10:29.168Z,2.93
2019-01-15T14:13:18.273Z,2.70
2019-01-15T14:16:05.994Z,3.00
2019-01-15T14:18:55.039Z,2.80
2019-01-15T14:21:56.154Z,3.97
2019-01-15T14:24:38.801Z,3.00
2019-01-15T14:27:46.069Z,3.20
2019-01-15T14:30:47.508Z,3.00
2019-01-15T14:33:37.138Z,2.80
2019-01-15T14:36:26.057Z,2.90
2019-01-15T14:39:13.671Z,2.70
2019-01-15T14:41:56.388Z,2.60
2019-01-15T14:44:43.481Z,2.90
2019-01-15T14:47:35.305Z,2.80
2019-01-15T14:50:38.460Z,3.13
2019-01-15T14:53:26.827Z,3.43
2019-01-15T14:56:14.302Z,3.00
2019-01-15T14:59:11.227Z,3.13
2019-01-15T15:02:00.077Z,3.00
2019-01-15T15:04:43.711Z,2.70
2019-01-15T15:07:32.637Z,2.93
2019-01-15T15:10:19.875Z,2.90
2019-01-15T15:13:07.819Z,2.83
2019-01-15T15:15:52.062Z,2.73
2019-01-15T15:18:35.902Z,3.13
2019-01-15T15:21:35.083Z,3.03
2019-01-15T15:24:23.808Z,2.73
2019-01-15T15:27:22.282Z,2.87
2019-01-15T15:30:17.294Z,4.20
2019-01-15T15:33:00.983Z,2.80
2019-01-15T15:35:48.139Z,2.90
2019-01-15T15:38:47.906Z,2.70
2019-01-15T15:41:49.167Z,2.83
2019-01-15T15:44:29.931Z,2.67
2019-01-15T15:47:11.052Z,3.10
2019-01-15T15:49:54.865Z,2.77
2019-01-15T15:52:43.893Z,3.40
2019-01-15T15:55:27.693Z,6.00
2019-01-15T15:58:05.957Z,2.97
2019-01-15T16:00:55.050Z,3.13
2019-01-15T16:03:33.426Z,3.00
2019-01-15T16:06:25.135Z,3.23
2019-01-15T16:09:26.127Z,2.87
2019-01-15T16:12:29.955Z,3.10
2019-01-15T16:15:19.330Z,3.07
2019-01-15T16:18:07.934Z,3.47
2019-01-15T16:20:56.525Z,3.37
2019-01-15T16:23:51.708Z,3.50
2019-01-15T16:26:49.423Z,3.50
2019-01-15T16:29:40.018Z,3.20
2019-01-15T16:32:27.095Z,2.97
2019-01-15T16:35:33.666Z,3.40
2019-01-15T16:38:26.238Z,6.57
2019-01-15T16:41:33.567Z,3.93
2019-01-15T16:44:18.035Z,3.93
2019-01-15T16:47:05.543Z,3.50
2019-01-15T16:49:48.394Z,3.67
2019-01-15T16:52:52.599Z,3.80
2019-01-15T16:55:46.070Z,3.90
2019-01-15T16:58:33.452Z,3.50
2019-01-15T17:01:35.010Z,4.33
2019-01-15T17:04:24.437Z,3.67
2019-01-15T17:07:22.504Z,3.67
2019-01-15T17:10:16.182Z,3.83
2019-01-15T17:13:04.495Z,3.90
2019-01-15T17:15:53.351Z,4.07
2019-01-15T17:18:42.573Z,3.93
2019-01-15T17:21:41.891Z,4.30
2019-01-15T17:24:24.671Z,4.23
2019-01-15T17:27:13.589Z,4.43
2019-01-15T17:29:50.957Z,4.30
2019-01-15T17:32:38.731Z,4.50
2019-01-15T17:35:24.174Z,4.50
2019-01-15T17:38:13.198Z,4.63
2019-01-15T17:40:58.715Z,4.27
2019-01-15T17:44:00.047Z,5.37
2019-01-15T17:47:00.509Z,4.47
2019-01-15T17:49:52.376Z,4.70
2019-01-15T17:52:43.976Z,4.80
2019-01-15T17:55:33.087Z,4.43
2019-01-15T17:58:21.458Z,4.83
2019-01-15T18:01:22.558Z,4.83
2019-01-15T18:04:10.418Z,4.73
2019-01-15T18:06:52.131Z,5.17
2019-01-15T18:09:41.302Z,6.37
2019-01-15T18:12:46.319Z,4.70
2019-01-15T18:15:44.525Z,4.57
2019-01-15T18:18:51.449Z,4.63
2019-01-15T18:21:38.466Z,4.80
2019-01-15T18:24:27.202Z,4.90
2019-01-15T18:27:21.965Z,4.53
2019-01-15T18:30:25.855Z,5.07
2019-01-15T18:33:20.493Z,4.97
2019-01-15T18:36:09.082Z,4.80
2019-01-15T18:38:58.662Z,6.27
2019-01-15T18:41:50.798Z,4.80
2019-01-15T18:44:45.783Z,4.40
2019-01-15T18:47:38.588Z,5.10
2019-01-15T18:50:27.205Z,5.33
2019-01-15T18:53:24.521Z,5.53
2019-01-15T18:56:05.562Z,5.87
2019-01-15T18:58:50.308Z,5.47
2019-01-15T19:01:44.372Z,5.10
2019-01-15T19:04:39.611Z,5.80
2019-01-15T19:07:35.422Z,5.27
2019-01-15T19:10:28.898Z,5.17
2019-01-15T19:13:16.990Z,4.70
2019-01-15T19:16:09.239Z,5.97
2019-01-15T19:18:57.257Z,6.00
2019-01-15T19:21:49.074Z,6.20
2019-01-15T19:24:36.560Z,5.23
2019-01-15T19:27:25.162Z,5.60
2019-01-15T19:30:10.401Z,6.00
2019-01-15T19:32:59.144Z,5.97
2019-01-15T19:36:00.348Z,5.40
2019-01-15T19:38:45.431Z,6.40
2019-01-15T19:41:53.338Z,6.17
2019-01-15T19:44:36.695Z,6.60
2019-01-15T19:47:41.842Z,6.37
2019-01-15T19:50:30.527Z,6.40
2019-01-15T19:53:16.659Z,6.07
2019-01-15T19:56:03.596Z,6.43
2019-01-15T19:58:43.172Z,7.03
2019-01-15T20:01:21.434Z,6.20
2019-01-15T20:04:22.455Z,6.87
2019-01-15T20:07:09.963Z,6.63
2019-01-15T20:09:59.529Z,6.97
2019-01-15T20:12:53.457Z,6.27
2019-01-15T20:15:41.386Z,6.53
2019-01-15T20:18:30.541Z,7.20
2019-01-15T20:21:12.306Z,6.83
2019-01-15T20:23:55.875Z,6.77
2019-01-15T20:26:43.706Z,6.67
2019-01-15T20:29:38.506Z,6.50
2019-01-15T20:32:37.908Z,6.60
2019-01-15T20:35:25.214Z,7.40
2019-01-15T20:38:14.016Z,13.70
2019-01-15T20:41:04.292Z,6.60
2019-01-15T20:43:55.152Z,6.67
2019-01-15T20:46:45.201Z,7.00
2019-01-15T20:49:37.291Z,6.60
2019-01-15T20:52:25.331Z,6.63
2019-01-15T20:55:21.637Z,6.70
2019-01-15T20:58:09.279Z,6.93
2019-01-15T21:00:56.633Z,7.13
2019-01-15T21:03:57.154Z,7.57
2019-01-15T21:06:46.200Z,6.20
2019-01-15T21:09:47.114Z,7.10
2019-01-15T21:12:36.100Z,6.67
2019-01-15T21:15:35.408Z,6.83
2019-01-15T21:18:30.305Z,8.30
2019-01-15T21:21:18.007Z,6.53
2019-01-15T21:24:10.024Z,6.30
2019-01-15T21:27:05.279Z,6.10
2019-01-15T21:29:51.939Z,7.23
2019-01-15T21:32:39.108Z,6.97
2019-01-15T21:35:27.702Z,6.50
2019-01-15T21:38:28.485Z,7.80
2019-01-15T21:41:11.388Z,7.23
2019-01-15T21:44:00.547Z,6.90
2019-01-15T21:46:42.704Z,6.63
2019-01-15T21:49:31.255Z,6.80
2019-01-15T21:52:12.956Z,5.60
2019-01-15T21:54:52.319Z,6.47
2019-01-15T21:57:47.615Z,5.63
2019-01-15T22:00:52.023Z,5.87
2019-01-15T22:03:41.548Z,5.37
2019-01-15T22:06:48.412Z,5.97
2019-01-15T22:09:35.537Z,6.73
2019-01-15T22:12:21.654Z,6.03
2019-01-15T22:15:09.869Z,6.10
2019-01-15T22:18:07.359Z,5.93
2019-01-15T22:20:56.111Z,6.10
2019-01-15T22:23:51.281Z,5.53
2019-01-15T22:26:49.138Z,5.90
2019-01-15T22:29:36.755Z,5.90
2019-01-15T22:32:28.355Z,6.10
2019-01-15T22:35:34.786Z,5.90
2019-01-15T22:38:19.645Z,6.27
2019-01-15T22:41:07.614Z,6.17
2019-01-15T22:44:05.326Z,6.27
2019-01-15T22:46:54.737Z,6.60
2019-01-15T22:49:40.479Z,6.33
2019-01-15T22:52:28.227Z,6.00
2019-01-15T22:55:24.584Z,5.97
2019-01-15T22:58:12.499Z,6.90
2019-01-15T23:01:08.320Z,5.20
2019-01-15T23:04:12.281Z,6.13
2019-01-15T23:07:07.511Z,5.10
2019-01-15T23:09:53.728Z,4.97
2019-01-15T23:12:48.978Z,5.60
2019-01-15T23:15:38.134Z,4.87
2019-01-15T23:18:28.595Z,5.40
2019-01-15T23:21:19.183Z,5.23
2019-01-15T23:24:13.459Z,7.00
2019-01-15T23:27:00.542Z,5.27
2019-01-15T23:29:55.973Z,5.67
2019-01-15T23:32:46.677Z,5.93
2019-01-15T23:35:48.490Z,5.67
2019-01-15T23:38:37.246Z,5.40
2019-01-15T23:41:25.127Z,5.13
2019-01-15T23:44:17.050Z,5.47
2019-01-15T23:46:55.078Z,5.80
2019-01-15T23:49:47.399Z,5.17
2019-01-15T23:52:41.990Z,5.07
2019-01-15T23:55:42.761Z,5.20
2019-01-15T23:58:50.022Z,5.83
